< Typhoon 195826 1958 Season Typhoon 195828 >
Typhoon 195827 (MARIE)
General InformationTrack Information on Google Maps || Disaster Info.ResourceGoogle EarthGE AnimationAtom FeedGeoJSON
Detalied Best Track (Time Zone = UTC)
Year Month Day Hour Lat. Long. Pressure (hPa) Wind (kt) Class Image Chart
1958 10 23 18 12.0 161.0 1002 0 2 -- Chart
1958 10 24 00 12.3 160.5 1002 0 2 -- Chart
1958 10 24 06 12.7 160.0 1002 0 2 -- Chart
1958 10 24 12 13.1 159.5 1002 0 2 -- Chart
1958 10 24 18 13.5 159.0 1002 0 2 -- Chart
1958 10 25 00 13.9 158.3 1000 0 2 -- Chart
1958 10 25 06 14.3 157.8 1000 0 2 -- Chart
1958 10 25 12 14.7 157.3 1000 0 2 -- Chart
1958 10 25 18 15.0 157.0 980 0 9 -- Chart
1958 10 26 00 15.2 156.5 970 0 9 -- Chart
1958 10 26 06 15.7 155.4 955 0 9 -- Chart
1958 10 26 12 16.1 155.2 950 0 9 -- Chart
1958 10 26 18 16.3 155.3 950 0 9 -- Chart
1958 10 27 00 16.7 155.5 945 0 9 -- Chart
1958 10 27 06 17.3 155.7 940 0 9 -- Chart
1958 10 27 12 17.3 154.8 940 0 9 -- Chart
1958 10 27 18 16.7 154.9 940 0 9 -- Chart
1958 10 28 00 16.9 155.1 940 0 9 -- Chart
1958 10 28 06 17.4 155.4 945 0 9 -- Chart
1958 10 28 12 18.1 155.5 950 0 9 -- Chart
1958 10 28 18 18.8 155.8 955 0 9 -- Chart
1958 10 29 00 19.6 155.8 955 0 9 -- Chart
1958 10 29 06 20.2 155.8 950 0 9 -- Chart
1958 10 29 12 21.1 155.7 950 0 9 -- Chart
1958 10 29 18 22.0 155.5 950 0 9 -- Chart
1958 10 30 00 22.6 155.0 945 0 9 -- Chart
1958 10 30 06 22.7 154.4 945 0 9 -- Chart
1958 10 30 12 22.6 153.8 945 0 9 -- Chart
1958 10 30 18 22.3 153.2 945 0 9 -- Chart
1958 10 31 00 22.2 152.6 950 0 9 -- Chart
1958 10 31 06 22.2 151.9 950 0 9 -- Chart
1958 10 31 12 22.1 150.7 950 0 9 -- Chart
1958 10 31 18 22.0 149.5 950 0 9 -- Chart
1958 11 1 00 23.0 148.8 945 0 9 -- Chart
1958 11 1 06 23.4 147.9 940 0 9 -- Chart
1958 11 1 12 24.2 147.5 940 0 9 -- Chart
1958 11 1 18 25.5 147.2 940 0 9 -- Chart
1958 11 2 00 27.4 147.2 945 0 9 -- Chart
1958 11 2 06 30.0 147.5 950 0 9 -- Chart
1958 11 2 12 32.0 149.0 960 0 9 -- Chart
1958 11 2 18 34.0 151.5 970 0 9 -- Chart
1958 11 3 00 36.0 154.8 975 0 9 -- Chart
1958 11 3 06 37.0 159.5 980 0 9 -- Chart
1958 11 3 12 37.0 164.0 980 0 9 -- Chart
1958 11 3 18 37.0 169.0 980 0 6 -- Chart
1958 11 4 00 37.0 174.0 990 0 6 -- Chart
1958 11 4 06 36.2 179.5 990 0 6 -- Chart
1958 11 4 12 36.0 185.0 998 0 6 -- Chart
Japan Meteorological Agency Best Track Data | Correction Date : 1991-07-16
< Typhoon 195826 1958 Season Typhoon 195828 >

Help